sensor_id;sensor_type;location;lat;lon;timestamp;pressure;altitude;pressure_sealevel;temperature;humidity
9110;BME280;4590;51.462;6.692;2024-02-26T05:31:42;99712.19;;;6.17;72.87
9110;BME280;4590;51.462;6.692;2024-02-26T05:34:07;99712.59;;;6.24;72.54
9110;BME280;4590;51.462;6.692;2024-02-26T05:36:33;99720.78;;;6.24;72.63
9110;BME280;4590;51.462;6.692;2024-02-26T05:38:59;99712.00;;;6.13;72.87
9110;BME280;4590;51.462;6.692;2024-02-26T05:41:25;99714.09;;;6.16;73.62
9110;BME280;4590;51.462;6.692;2024-02-26T05:43:54;99716.44;;;6.09;74.22
9110;BME280;4590;51.462;6.692;2024-02-26T05:46:22;99722.50;;;6.06;74.12
9110;BME280;4590;51.462;6.692;2024-02-26T05:48:48;99724.94;;;6.08;73.75
9110;BME280;4590;51.462;6.692;2024-02-26T05:51:14;99732.00;;;6.09;73.36
9110;BME280;4590;51.462;6.692;2024-02-26T05:53:40;99727.94;;;6.06;73.46
9110;BME280;4590;51.462;6.692;2024-02-26T05:56:06;99724.94;;;6.08;73.47
9110;BME280;4590;51.462;6.692;2024-02-26T05:58:33;99735.34;;;6.06;73.98
9110;BME280;4590;51.462;6.692;2024-02-26T06:00:58;99735.63;;;6.04;74.03
9110;BME280;4590;51.462;6.692;2024-02-26T06:03:25;99736.97;;;6.07;73.53
9110;BME280;4590;51.462;6.692;2024-02-26T06:05:51;99749.19;;;6.09;73.68
9110;BME280;4590;51.462;6.692;2024-02-26T06:08:16;99745.88;;;6.12;73.44
9110;BME280;4590;51.462;6.692;2024-02-26T06:10:42;99752.75;;;6.10;73.88
9110;BME280;4590;51.462;6.692;2024-02-26T06:13:07;99741.53;;;6.11;74.07
9110;BME280;4590;51.462;6.692;2024-02-26T06:15:33;99753.78;;;6.14;73.31
9110;BME280;4590;51.462;6.692;2024-02-26T06:17:58;99762.56;;;6.11;74.08
9110;BME280;4590;51.462;6.692;2024-02-26T06:20:24;99758.09;;;6.15;73.14
9110;BME280;4590;51.462;6.692;2024-02-26T06:22:49;99756.28;;;6.10;73.89
9110;BME280;4590;51.462;6.692;2024-02-26T06:25:14;99758.81;;;6.07;74.42
9110;BME280;4590;51.462;6.692;2024-02-26T06:27:40;99766.28;;;6.15;73.53
9110;BME280;4590;51.462;6.692;2024-02-26T06:30:06;99768.00;;;5.97;75.16
9110;BME280;4590;51.462;6.692;2024-02-26T06:32:31;99765.88;;;6.08;74.97
9110;BME280;4590;51.462;6.692;2024-02-26T06:34:57;99766.41;;;6.10;74.59
9110;BME280;4590;51.462;6.692;2024-02-26T06:37:22;99762.56;;;6.11;74.12
9110;BME280;4590;51.462;6.692;2024-02-26T06:39:47;99766.78;;;6.03;74.89
9110;BME280;4590;51.462;6.692;2024-02-26T06:42:13;99775.28;;;6.02;74.90
9110;BME280;4590;51.462;6.692;2024-02-26T06:44:38;99772.38;;;6.12;74.27
9110;BME280;4590;51.462;6.692;2024-02-26T06:47:04;99780.84;;;5.96;75.38
9110;BME280;4590;51.462;6.692;2024-02-26T06:49:29;99778.44;;;6.09;75.16
9110;BME280;4590;51.462;6.692;2024-02-26T06:51:56;99777.91;;;6.07;75.59
9110;BME280;4590;51.462;6.692;2024-02-26T06:54:21;99779.75;;;6.11;74.81
9110;BME280;4590;51.462;6.692;2024-02-26T06:56:47;99774.59;;;6.10;75.25
9110;BME280;4590;51.462;6.692;2024-02-26T06:59:12;99779.34;;;6.18;74.65
9110;BME280;4590;51.462;6.692;2024-02-26T07:01:41;99791.50;;;6.12;74.73
9110;BME280;4590;51.462;6.692;2024-02-26T07:04:06;99784.22;;;6.21;74.27
9110;BME280;4590;51.462;6.692;2024-02-26T07:06:32;99793.00;;;6.18;74.82
9110;BME280;4590;51.462;6.692;2024-02-26T07:08:57;99787.34;;;6.14;75.44
9110;BME280;4590;51.462;6.692;2024-02-26T07:11:24;99794.13;;;6.17;74.72
9110;BME280;4590;51.462;6.692;2024-02-26T07:13:50;99796.25;;;6.20;74.38
9110;BME280;4590;51.462;6.692;2024-02-26T07:16:16;99803.84;;;6.23;74.65
9110;BME280;4590;51.462;6.692;2024-02-26T07:18:41;99804.44;;;6.20;74.63
9110;BME280;4590;51.462;6.692;2024-02-26T07:21:11;99803.00;;;6.09;75.96
9110;BME280;4590;51.462;6.692;2024-02-26T07:23:37;99802.81;;;6.19;75.45
9110;BME280;4590;51.462;6.692;2024-02-26T07:26:04;99812.88;;;6.23;75.14
9110;BME280;4590;51.462;6.692;2024-02-26T07:28:29;99812.34;;;6.21;75.48
9110;BME280;4590;51.462;6.692;2024-02-26T07:30:55;99817.50;;;6.23;75.68
9110;BME280;4590;51.462;6.692;2024-02-26T07:33:21;99816.41;;;6.24;75.80
9110;BME280;4590;51.462;6.692;2024-02-26T07:35:46;99818.09;;;6.20;76.04
9110;BME280;4590;51.462;6.692;2024-02-26T07:38:12;99825.13;;;6.26;75.21
9110;BME280;4590;51.462;6.692;2024-02-26T07:40:38;99826.63;;;6.32;74.64
9110;BME280;4590;51.462;6.692;2024-02-26T07:43:04;99828.34;;;6.28;75.65
9110;BME280;4590;51.462;6.692;2024-02-26T07:45:36;99831.91;;;6.28;75.01
9110;BME280;4590;51.462;6.692;2024-02-26T07:48:13;99835.34;;;6.34;74.30
9110;BME280;4590;51.462;6.692;2024-02-26T07:50:40;99837.56;;;6.32;74.90
9110;BME280;4590;51.462;6.692;2024-02-26T07:53:07;99839.59;;;6.26;74.94
9110;BME280;4590;51.462;6.692;2024-02-26T07:55:33;99844.94;;;6.31;74.70
9110;BME280;4590;51.462;6.692;2024-02-26T07:57:58;99861.63;;;6.30;75.70
9110;BME280;4590;51.462;6.692;2024-02-26T08:00:24;99854.94;;;6.22;75.52
9110;BME280;4590;51.462;6.692;2024-02-26T08:02:49;99857.09;;;6.25;75.69
9110;BME280;4590;51.462;6.692;2024-02-26T08:05:16;99849.19;;;6.24;75.31
9110;BME280;4590;51.462;6.692;2024-02-26T08:07:42;99852.44;;;6.26;75.43
9110;BME280;4590;51.462;6.692;2024-02-26T08:10:08;99860.03;;;6.29;74.87
9110;BME280;4590;51.462;6.692;2024-02-26T08:12:33;99865.69;;;6.32;75.39
9110;BME280;4590;51.462;6.692;2024-02-26T08:14:59;99866.78;;;6.31;75.23
9110;BME280;4590;51.462;6.692;2024-02-26T08:17:25;99865.97;;;6.31;75.12
9110;BME280;4590;51.462;6.692;2024-02-26T08:19:51;99867.41;;;6.28;75.69
9110;BME280;4590;51.462;6.692;2024-02-26T08:22:16;99874.81;;;6.28;75.44
9110;BME280;4590;51.462;6.692;2024-02-26T08:24:43;99867.19;;;6.25;75.25
9110;BME280;4590;51.462;6.692;2024-02-26T08:27:08;99876.31;;;6.34;75.94
9110;BME280;4590;51.462;6.692;2024-02-26T08:29:34;99872.06;;;6.28;76.25
9110;BME280;4590;51.462;6.692;2024-02-26T08:32:00;99873.06;;;6.32;75.29
9110;BME280;4590;51.462;6.692;2024-02-26T08:34:26;99874.28;;;6.26;76.52
9110;BME280;4590;51.462;6.692;2024-02-26T08:36:54;99881.56;;;6.30;76.49
9110;BME280;4590;51.462;6.692;2024-02-26T08:39:20;99896.47;;;6.38;75.88
9110;BME280;4590;51.462;6.692;2024-02-26T08:41:46;99884.75;;;6.38;75.67
9110;BME280;4590;51.462;6.692;2024-02-26T08:44:11;99888.28;;;6.38;75.29
9110;BME280;4590;51.462;6.692;2024-02-26T08:46:38;99889.69;;;6.36;75.80
9110;BME280;4590;51.462;6.692;2024-02-26T08:49:04;99889.75;;;6.30;76.07
9110;BME280;4590;51.462;6.692;2024-02-26T08:51:30;99891.09;;;6.33;75.93
9110;BME280;4590;51.462;6.692;2024-02-26T08:53:56;99895.75;;;6.32;76.17
9110;BME280;4590;51.462;6.692;2024-02-26T08:56:22;99894.22;;;6.26;76.65
9110;BME280;4590;51.462;6.692;2024-02-26T08:58:48;99892.94;;;6.38;76.01
9110;BME280;4590;51.462;6.692;2024-02-26T09:01:17;99902.00;;;6.33;75.51
9110;BME280;4590;51.462;6.692;2024-02-26T09:03:42;99915.31;;;6.40;75.63
9110;BME280;4590;51.462;6.692;2024-02-26T09:06:08;99909.53;;;6.41;75.82
9110;BME280;4590;51.462;6.692;2024-02-26T09:08:34;99915.38;;;6.34;76.27
9110;BME280;4590;51.462;6.692;2024-02-26T09:11:01;99920.78;;;6.40;76.07
9110;BME280;4590;51.462;6.692;2024-02-26T09:13:26;99920.78;;;6.40;75.81
9110;BME280;4590;51.462;6.692;2024-02-26T09:15:51;99924.53;;;6.44;75.27
9110;BME280;4590;51.462;6.692;2024-02-26T09:18:17;99925.53;;;6.48;75.40
9110;BME280;4590;51.462;6.692;2024-02-26T09:20:42;99926.66;;;6.47;75.65
9110;BME280;4590;51.462;6.692;2024-02-26T09:23:07;99922.09;;;6.42;75.86
9110;BME280;4590;51.462;6.692;2024-02-26T09:25:32;99918.97;;;6.49;75.51
9110;BME280;4590;51.462;6.692;2024-02-26T09:28:01;99921.19;;;6.47;74.91
9110;BME280;4590;51.462;6.692;2024-02-26T09:30:26;99934.25;;;6.50;75.47
9110;BME280;4590;51.462;6.692;2024-02-26T09:32:52;99933.66;;;6.53;75.64
9110;BME280;4590;51.462;6.692;2024-02-26T09:35:17;99949.53;;;6.51;75.94
9110;BME280;4590;51.462;6.692;2024-02-26T09:37:42;99948.22;;;6.48;75.84
9110;BME280;4590;51.462;6.692;2024-02-26T09:40:09;99944.97;;;6.46;75.98
9110;BME280;4590;51.462;6.692;2024-02-26T09:42:37;99953.91;;;6.52;75.72
9110;BME280;4590;51.462;6.692;2024-02-26T09:45:05;99950.34;;;6.51;75.47
9110;BME280;4590;51.462;6.692;2024-02-26T09:47:35;99970.31;;;6.52;75.77
9110;BME280;4590;51.462;6.692;2024-02-26T09:50:01;99965.06;;;6.55;75.97
9110;BME280;4590;51.462;6.692;2024-02-26T09:52:28;99959.88;;;6.54;75.92
9110;BME280;4590;51.462;6.692;2024-02-26T09:54:56;99967.28;;;6.53;76.04
9110;BME280;4590;51.462;6.692;2024-02-26T09:57:21;99968.91;;;6.54;75.91
9110;BME280;4590;51.462;6.692;2024-02-26T09:59:51;99971.56;;;6.59;75.29
9110;BME280;4590;51.462;6.692;2024-02-26T10:02:19;99981.06;;;6.62;75.17
9110;BME280;4590;51.462;6.692;2024-02-26T10:04:46;99983.50;;;6.63;75.57
9110;BME280;4590;51.462;6.692;2024-02-26T10:07:13;99997.16;;;6.63;75.32
9110;BME280;4590;51.462;6.692;2024-02-26T10:09:39;99997.16;;;6.63;75.25
9110;BME280;4590;51.462;6.692;2024-02-26T10:12:06;99986.22;;;6.63;75.17
9110;BME280;4590;51.462;6.692;2024-02-26T10:14:32;99990.06;;;6.62;75.56
9110;BME280;4590;51.462;6.692;2024-02-26T10:16:58;99996.06;;;6.64;75.11
9110;BME280;4590;51.462;6.692;2024-02-26T10:19:27;99999.31;;;6.66;75.48
9110;BME280;4590;51.462;6.692;2024-02-26T10:21:59;99991.28;;;6.56;76.80
9110;BME280;4590;51.462;6.692;2024-02-26T10:24:26;100004.25;;;6.64;75.93
9110;BME280;4590;51.462;6.692;2024-02-26T10:26:52;99996.56;;;6.66;75.59
9110;BME280;4590;51.462;6.692;2024-02-26T10:29:18;100000.63;;;6.69;75.28
9110;BME280;4590;51.462;6.692;2024-02-26T10:31:44;100007.72;;;6.70;75.49
9110;BME280;4590;51.462;6.692;2024-02-26T10:34:10;100015.19;;;6.64;75.74
9110;BME280;4590;51.462;6.692;2024-02-26T10:36:35;100015.13;;;6.69;75.87
9110;BME280;4590;51.462;6.692;2024-02-26T10:39:02;100015.13;;;6.69;75.42
9110;BME280;4590;51.462;6.692;2024-02-26T10:41:28;100023.09;;;6.66;76.02
9110;BME280;4590;51.462;6.692;2024-02-26T10:43:54;100017.84;;;6.69;75.96
9110;BME280;4590;51.462;6.692;2024-02-26T10:46:19;100023.38;;;6.64;76.48
9110;BME280;4590;51.462;6.692;2024-02-26T10:48:51;100036.75;;;6.66;76.63
9110;BME280;4590;51.462;6.692;2024-02-26T10:51:27;100031.06;;;6.62;77.01
9110;BME280;4590;51.462;6.692;2024-02-26T10:53:56;100041.13;;;6.48;78.65
9110;BME280;4590;51.462;6.692;2024-02-26T10:56:28;100042.75;;;6.68;76.74
9110;BME280;4590;51.462;6.692;2024-02-26T10:58:55;100054.13;;;6.75;76.69
9110;BME280;4590;51.462;6.692;2024-02-26T11:01:21;100049.47;;;6.76;76.87
9110;BME280;4590;51.462;6.692;2024-02-26T11:03:52;100060.59;;;6.79;76.69
9110;BME280;4590;51.462;6.692;2024-02-26T11:06:18;100065.78;;;6.81;77.26
9110;BME280;4590;51.462;6.692;2024-02-26T11:08:48;100056.41;;;6.87;76.93
9110;BME280;4590;51.462;6.692;2024-02-26T11:11:14;100051.16;;;6.90;76.31
9110;BME280;4590;51.462;6.692;2024-02-26T11:13:40;100063.78;;;6.86;77.56
9110;BME280;4590;51.462;6.692;2024-02-26T11:16:08;100062.81;;;6.96;76.37
9110;BME280;4590;51.462;6.692;2024-02-26T11:18:34;100067.16;;;6.97;76.64
9110;BME280;4590;51.462;6.692;2024-02-26T11:21:01;100063.75;;;7.05;76.34
9110;BME280;4590;51.462;6.692;2024-02-26T11:23:27;100072.16;;;7.09;76.80
9110;BME280;4590;51.462;6.692;2024-02-26T11:25:55;100061.13;;;7.14;76.25
9110;BME280;4590;51.462;6.692;2024-02-26T11:28:21;100058.03;;;7.20;75.82
9110;BME280;4590;51.462;6.692;2024-02-26T11:30:48;100067.16;;;7.29;75.49
9110;BME280;4590;51.462;6.692;2024-02-26T11:33:15;100060.78;;;7.34;76.19
9110;BME280;4590;51.462;6.692;2024-02-26T11:35:41;100066.47;;;7.37;75.48
9110;BME280;4590;51.462;6.692;2024-02-26T11:38:07;100057.75;;;7.35;76.31
9110;BME280;4590;51.462;6.692;2024-02-26T11:40:33;100049.75;;;7.39;76.23
9110;BME280;4590;51.462;6.692;2024-02-26T11:43:04;100059.25;;;7.42;75.31
9110;BME280;4590;51.462;6.692;2024-02-26T11:48:10;100055.94;;;7.45;75.70
9110;BME280;4590;51.462;6.692;2024-02-26T11:50:38;100056.44;;;7.47;75.46
9110;BME280;4590;51.462;6.692;2024-02-26T11:55:48;100060.72;;;7.53;76.11
9110;BME280;4590;51.462;6.692;2024-02-26T11:58:14;100070.66;;;7.49;76.41
9110;BME280;4590;51.462;6.692;2024-02-26T12:00:40;100070.44;;;7.59;75.88
9110;BME280;4590;51.462;6.692;2024-02-26T12:03:05;100072.38;;;7.58;75.27
9110;BME280;4590;51.462;6.692;2024-02-26T12:05:34;100076.63;;;7.51;75.86
9110;BME280;4590;51.462;6.692;2024-02-26T12:08:06;100091.53;;;7.58;74.87
9110;BME280;4590;51.462;6.692;2024-02-26T12:10:34;100069.03;;;7.61;75.28
9110;BME280;4590;51.462;6.692;2024-02-26T12:13:14;100080.56;;;7.58;74.95
9110;BME280;4590;51.462;6.692;2024-02-26T12:15:40;100081.00;;;7.65;75.02
9110;BME280;4590;51.462;6.692;2024-02-26T12:18:07;100091.66;;;7.67;74.01
9110;BME280;4590;51.462;6.692;2024-02-26T12:20:35;100080.59;;;7.72;74.23
9110;BME280;4590;51.462;6.692;2024-02-26T12:23:01;100084.47;;;7.71;74.77
9110;BME280;4590;51.462;6.692;2024-02-26T12:25:27;100090.13;;;7.61;74.64
9110;BME280;4590;51.462;6.692;2024-02-26T12:27:53;100085.25;;;7.71;74.17
9110;BME280;4590;51.462;6.692;2024-02-26T12:30:18;100078.88;;;7.76;74.05
9110;BME280;4590;51.462;6.692;2024-02-26T12:32:45;100086.50;;;7.79;74.25
9110;BME280;4590;51.462;6.692;2024-02-26T12:35:10;100088.13;;;7.80;74.32
9110;BME280;4590;51.462;6.692;2024-02-26T12:37:36;100092.34;;;7.59;74.80
9110;BME280;4590;51.462;6.692;2024-02-26T12:40:04;100100.28;;;7.74;74.31
9110;BME280;4590;51.462;6.692;2024-02-26T12:42:32;100106.97;;;7.82;73.80
9110;BME280;4590;51.462;6.692;2024-02-26T12:45:04;100105.66;;;7.79;74.15
9110;BME280;4590;51.462;6.692;2024-02-26T12:47:38;100107.66;;;7.73;73.41
9110;BME280;4590;51.462;6.692;2024-02-26T12:50:04;100106.19;;;7.81;73.58
9110;BME280;4590;51.462;6.692;2024-02-26T12:52:38;100121.56;;;7.77;73.45
9110;BME280;4590;51.462;6.692;2024-02-26T12:55:05;100120.38;;;7.83;73.36
9110;BME280;4590;51.462;6.692;2024-02-26T12:57:32;100134.97;;;7.92;73.34
9110;BME280;4590;51.462;6.692;2024-02-26T12:59:59;100138.84;;;7.91;73.02
9110;BME280;4590;51.462;6.692;2024-02-26T13:02:26;100139.84;;;7.95;73.17
9110;BME280;4590;51.462;6.692;2024-02-26T13:04:52;100147.97;;;7.87;73.31
9110;BME280;4590;51.462;6.692;2024-02-26T13:07:18;100142.81;;;7.99;72.75
9110;BME280;4590;51.462;6.692;2024-02-26T13:09:44;100149.63;;;8.01;72.83
9110;BME280;4590;51.462;6.692;2024-02-26T13:12:09;100155.91;;;8.02;72.51
9110;BME280;4590;51.462;6.692;2024-02-26T13:14:35;100139.84;;;7.95;72.66
9110;BME280;4590;51.462;6.692;2024-02-26T13:17:01;100151.63;;;7.96;72.41
9110;BME280;4590;51.462;6.692;2024-02-26T13:19:27;100152.03;;;8.03;72.25
9110;BME280;4590;51.462;6.692;2024-02-26T13:21:55;100156.31;;;8.09;71.73
9110;BME280;4590;51.462;6.692;2024-02-26T13:24:21;100153.88;;;8.07;72.01
9110;BME280;4590;51.462;6.692;2024-02-26T13:26:53;100171.63;;;8.10;71.50
9110;BME280;4590;51.462;6.692;2024-02-26T13:29:19;100186.75;;;8.07;71.65
9110;BME280;4590;51.462;6.692;2024-02-26T13:31:44;100184.13;;;8.02;71.76
9110;BME280;4590;51.462;6.692;2024-02-26T13:34:10;100171.13;;;8.08;71.49
9110;BME280;4590;51.462;6.692;2024-02-26T13:36:35;100172.22;;;8.07;71.71
9110;BME280;4590;51.462;6.692;2024-02-26T13:39:01;100176.59;;;8.08;71.85
9110;BME280;4590;51.462;6.692;2024-02-26T13:41:26;100177.19;;;8.19;71.31
9110;BME280;4590;51.462;6.692;2024-02-26T13:43:52;100186.66;;;8.26;71.27
9110;BME280;4590;51.462;6.692;2024-02-26T13:46:17;100189.41;;;8.26;71.09
9110;BME280;4590;51.462;6.692;2024-02-26T13:48:43;100205.41;;;8.19;71.08
9110;BME280;4590;51.462;6.692;2024-02-26T13:51:08;100191.53;;;8.29;70.64
9110;BME280;4590;51.462;6.692;2024-02-26T13:53:34;100196.59;;;8.22;70.80
9110;BME280;4590;51.462;6.692;2024-02-26T13:55:59;100202.59;;;8.24;70.53
9110;BME280;4590;51.462;6.692;2024-02-26T13:58:29;100204.50;;;8.24;70.33
9110;BME280;4590;51.462;6.692;2024-02-26T14:00:54;100204.72;;;8.27;70.26
9110;BME280;4590;51.462;6.692;2024-02-26T14:03:20;100217.41;;;8.23;69.97
9110;BME280;4590;51.462;6.692;2024-02-26T14:05:45;100217.84;;;8.30;69.95
9110;BME280;4590;51.462;6.692;2024-02-26T14:08:11;100229.47;;;8.22;70.34
9110;BME280;4590;51.462;6.692;2024-02-26T14:10:36;100208.88;;;8.25;70.31
9110;BME280;4590;51.462;6.692;2024-02-26T14:13:02;100208.38;;;8.23;70.67
9110;BME280;4590;51.462;6.692;2024-02-26T14:15:28;100215.16;;;8.12;70.15
9110;BME280;4590;51.462;6.692;2024-02-26T14:17:56;100218.63;;;8.17;70.57
9110;BME280;4590;51.462;6.692;2024-02-26T14:20:22;100217.59;;;8.13;70.45
9110;BME280;4590;51.462;6.692;2024-02-26T14:22:50;100216.00;;;8.26;69.87
9110;BME280;4590;51.462;6.692;2024-02-26T14:25:16;100227.78;;;8.26;70.30
9110;BME280;4590;51.462;6.692;2024-02-26T14:27:41;100214.94;;;8.08;70.42
9110;BME280;4590;51.462;6.692;2024-02-26T14:30:07;100222.56;;;8.11;70.52
9110;BME280;4590;51.462;6.692;2024-02-26T14:32:32;100221.97;;;8.14;70.10
9110;BME280;4590;51.462;6.692;2024-02-26T14:35:01;100236.28;;;8.11;70.61
9110;BME280;4590;51.462;6.692;2024-02-26T14:37:28;100256.78;;;8.14;70.43
9110;BME280;4590;51.462;6.692;2024-02-26T14:39:53;100247.25;;;8.11;70.80
9110;BME280;4590;51.462;6.692;2024-02-26T14:42:18;100245.53;;;8.15;70.69
9110;BME280;4590;51.462;6.692;2024-02-26T14:44:44;100248.28;;;8.15;70.80
9110;BME280;4590;51.462;6.692;2024-02-26T14:47:09;100246.13;;;8.12;70.61
9110;BME280;4590;51.462;6.692;2024-02-26T14:49:35;100256.13;;;8.03;71.06
9110;BME280;4590;51.462;6.692;2024-02-26T14:52:00;100264.91;;;8.19;70.49
9110;BME280;4590;51.462;6.692;2024-02-26T14:54:26;100266.34;;;8.16;70.52
9110;BME280;4590;51.462;6.692;2024-02-26T14:56:51;100272.81;;;8.20;70.35
9110;BME280;4590;51.462;6.692;2024-02-26T14:59:16;100292.13;;;8.29;70.25
9110;BME280;4590;51.462;6.692;2024-02-26T15:01:42;100292.13;;;8.15;70.66
9110;BME280;4590;51.462;6.692;2024-02-26T15:04:07;100306.41;;;8.12;70.35
9110;BME280;4590;51.462;6.692;2024-02-26T15:06:32;100295.16;;;8.14;69.91
9110;BME280;4590;51.462;6.692;2024-02-26T15:09:00;100308.72;;;8.05;70.22
9110;BME280;4590;51.462;6.692;2024-02-26T15:11:25;100297.59;;;8.15;70.01
9110;BME280;4590;51.462;6.692;2024-02-26T15:13:51;100301.53;;;8.09;70.36
9110;BME280;4590;51.462;6.692;2024-02-26T15:16:20;100299.19;;;8.02;70.63
9110;BME280;4590;51.462;6.692;2024-02-26T15:18:46;100303.59;;;8.17;70.33
9110;BME280;4590;51.462;6.692;2024-02-26T15:21:12;100308.25;;;8.17;70.28
9110;BME280;4590;51.462;6.692;2024-02-26T15:23:39;100305.72;;;8.20;70.54
9110;BME280;4590;51.462;6.692;2024-02-26T15:26:04;100322.97;;;8.21;70.66
9110;BME280;4590;51.462;6.692;2024-02-26T15:28:30;100318.81;;;8.23;70.33
9110;BME280;4590;51.462;6.692;2024-02-26T15:30:55;100322.97;;;8.21;71.22
9110;BME280;4590;51.462;6.692;2024-02-26T15:33:20;100324.78;;;8.12;71.65
9110;BME280;4590;51.462;6.692;2024-02-26T15:35:46;100331.88;;;8.13;71.39
9110;BME280;4590;51.462;6.692;2024-02-26T15:38:11;100337.19;;;8.23;71.21
9110;BME280;4590;51.462;6.692;2024-02-26T15:40:38;100344.59;;;8.22;70.94
9110;BME280;4590;51.462;6.692;2024-02-26T15:43:03;100341.16;;;8.17;71.79
9110;BME280;4590;51.462;6.692;2024-02-26T15:45:29;100353.50;;;8.14;71.31
9110;BME280;4590;51.462;6.692;2024-02-26T15:47:59;100352.84;;;8.03;71.78
9110;BME280;4590;51.462;6.692;2024-02-26T15:50:24;100361.06;;;8.03;71.51
9110;BME280;4590;51.462;6.692;2024-02-26T15:52:49;100368.19;;;8.04;71.32
9110;BME280;4590;51.462;6.692;2024-02-26T15:55:15;100380.75;;;8.05;71.47
9110;BME280;4590;51.462;6.692;2024-02-26T15:57:43;100364.50;;;7.95;71.78
9110;BME280;4590;51.462;6.692;2024-02-26T16:00:09;100376.50;;;7.99;71.72
9110;BME280;4590;51.462;6.692;2024-02-26T16:02:36;100383.59;;;8.00;71.91
9110;BME280;4590;51.462;6.692;2024-02-26T16:05:02;100395.44;;;7.96;72.12
9110;BME280;4590;51.462;6.692;2024-02-26T16:07:34;100397.97;;;7.92;71.87
9110;BME280;4590;51.462;6.692;2024-02-26T16:10:00;100401.44;;;7.98;71.61
9110;BME280;4590;51.462;6.692;2024-02-26T16:12:35;100407.75;;;7.98;71.81
9110;BME280;4590;51.462;6.692;2024-02-26T16:15:02;100412.69;;;7.96;71.89
9110;BME280;4590;51.462;6.692;2024-02-26T16:17:30;100424.19;;;7.98;72.05
9110;BME280;4590;51.462;6.692;2024-02-26T16:19:57;100423.38;;;7.98;72.05
9110;BME280;4590;51.462;6.692;2024-02-26T16:22:23;100425.50;;;7.82;73.27
9110;BME280;4590;51.462;6.692;2024-02-26T16:24:49;100429.22;;;7.91;72.17
9110;BME280;4590;51.462;6.692;2024-02-26T16:27:14;100425.94;;;7.89;72.25
9110;BME280;4590;51.462;6.692;2024-02-26T16:29:39;100439.13;;;7.87;72.42
9110;BME280;4590;51.462;6.692;2024-02-26T16:32:05;100450.06;;;7.87;71.82
9110;BME280;4590;51.462;6.692;2024-02-26T16:34:31;100454.97;;;7.90;72.54
9110;BME280;4590;51.462;6.692;2024-02-26T16:36:56;100448.38;;;7.91;72.61
9110;BME280;4590;51.462;6.692;2024-02-26T16:39:21;100450.06;;;7.87;72.96
9110;BME280;4590;51.462;6.692;2024-02-26T16:41:46;100452.47;;;7.94;72.77
9110;BME280;4590;51.462;6.692;2024-02-26T16:44:12;100461.78;;;7.93;72.83
9110;BME280;4590;51.462;6.692;2024-02-26T16:46:37;100458.16;;;7.97;72.46
9110;BME280;4590;51.462;6.692;2024-02-26T16:49:02;100471.06;;;7.97;72.78
9110;BME280;4590;51.462;6.692;2024-02-26T16:51:29;100474.66;;;7.92;73.04
9110;BME280;4590;51.462;6.692;2024-02-26T16:53:54;100472.50;;;7.89;73.13
9110;BME280;4590;51.462;6.692;2024-02-26T16:56:19;100477.94;;;7.94;73.11
9110;BME280;4590;51.462;6.692;2024-02-26T16:58:45;100483.13;;;7.96;72.75
9110;BME280;4590;51.462;6.692;2024-02-26T17:01:10;100483.34;;;7.99;72.81
9110;BME280;4590;51.462;6.692;2024-02-26T17:03:37;100491.78;;;8.03;72.62
9110;BME280;4590;51.462;6.692;2024-02-26T17:06:03;100493.50;;;7.99;72.65
9110;BME280;4590;51.462;6.692;2024-02-26T17:08:28;100500.09;;;7.98;73.01
9110;BME280;4590;51.462;6.692;2024-02-26T17:10:57;100502.59;;;7.94;73.14
9110;BME280;4590;51.462;6.692;2024-02-26T17:13:22;100505.28;;;7.99;72.94
9110;BME280;4590;51.462;6.692;2024-02-26T17:15:49;100504.97;;;8.01;73.00
9110;BME280;4590;51.462;6.692;2024-02-26T17:18:14;100509.69;;;7.95;72.97
9110;BME280;4590;51.462;6.692;2024-02-26T17:20:41;100524.16;;;8.01;72.96
9110;BME280;4590;51.462;6.692;2024-02-26T17:23:07;100520.94;;;7.94;73.51
9110;BME280;4590;51.462;6.692;2024-02-26T17:25:32;100522.22;;;8.01;73.10
9110;BME280;4590;51.462;6.692;2024-02-26T17:27:57;100529.69;;;7.96;73.52
9110;BME280;4590;51.462;6.692;2024-02-26T17:30:23;100533.53;;;7.95;73.42
9110;BME280;4590;51.462;6.692;2024-02-26T17:32:48;100551.56;;;8.01;73.23
9110;BME280;4590;51.462;6.692;2024-02-26T17:35:14;100547.38;;;7.85;73.90
9110;BME280;4590;51.462;6.692;2024-02-26T17:37:41;100549.69;;;7.96;73.28
9110;BME280;4590;51.462;6.692;2024-02-26T17:40:06;100552.72;;;7.95;73.49
9110;BME280;4590;51.462;6.692;2024-02-26T17:42:33;100566.75;;;7.88;73.33
9110;BME280;4590;51.462;6.692;2024-02-26T17:44:59;100568.88;;;7.96;73.32
9110;BME280;4590;51.462;6.692;2024-02-26T17:47:25;100570.84;;;7.91;73.54
9110;BME280;4590;51.462;6.692;2024-02-26T17:49:50;100573.28;;;7.92;73.19
9110;BME280;4590;51.462;6.692;2024-02-26T17:52:16;100588.34;;;7.95;73.18
9110;BME280;4590;51.462;6.692;2024-02-26T17:54:41;100576.56;;;7.94;72.75
9110;BME280;4590;51.462;6.692;2024-02-26T17:57:06;100598.00;;;7.87;73.41
9110;BME280;4590;51.462;6.692;2024-02-26T17:59:32;100599.06;;;7.91;72.90
9110;BME280;4590;51.462;6.692;2024-02-26T18:01:57;100603.94;;;7.94;72.86
9110;BME280;4590;51.462;6.692;2024-02-26T18:04:22;100606.75;;;7.89;72.59
9110;BME280;4590;51.462;6.692;2024-02-26T18:06:48;100611.66;;;7.92;72.79
9110;BME280;4590;51.462;6.692;2024-02-26T18:09:13;100602.56;;;7.97;72.84
9110;BME280;4590;51.462;6.692;2024-02-26T18:11:39;100615.16;;;7.98;72.94
9110;BME280;4590;51.462;6.692;2024-02-26T18:14:05;100621.97;;;8.00;73.01
9110;BME280;4590;51.462;6.692;2024-02-26T18:16:31;100616.25;;;7.97;72.95
9110;BME280;4590;51.462;6.692;2024-02-26T18:18:56;100625.81;;;7.99;72.97
9110;BME280;4590;51.462;6.692;2024-02-26T18:21:21;100631.34;;;7.94;72.56
9110;BME280;4590;51.462;6.692;2024-02-26T18:23:47;100639.28;;;7.96;73.03
9110;BME280;4590;51.462;6.692;2024-02-26T18:26:13;100657.13;;;7.93;72.86
9110;BME280;4590;51.462;6.692;2024-02-26T18:28:44;100646.41;;;7.97;72.73
9110;BME280;4590;51.462;6.692;2024-02-26T18:31:09;100655.88;;;8.04;72.86
9110;BME280;4590;51.462;6.692;2024-02-26T18:33:34;100657.53;;;8.05;72.03
9110;BME280;4590;51.462;6.692;2024-02-26T18:36:00;100659.72;;;8.03;72.42
9110;BME280;4590;51.462;6.692;2024-02-26T18:38:29;100672.16;;;7.96;72.68
9110;BME280;4590;51.462;6.692;2024-02-26T18:40:54;100665.22;;;8.03;72.08
9110;BME280;4590;51.462;6.692;2024-02-26T18:43:19;100674.56;;;8.02;72.14
9110;BME280;4590;51.462;6.692;2024-02-26T18:45:44;100680.84;;;8.03;72.41
9110;BME280;4590;51.462;6.692;2024-02-26T18:48:10;100685.75;;;8.06;71.89
9110;BME280;4590;51.462;6.692;2024-02-26T18:50:35;100693.75;;;8.02;71.98
9110;BME280;4590;51.462;6.692;2024-02-26T18:53:00;100700.25;;;8.06;72.22
9110;BME280;4590;51.462;6.692;2024-02-26T18:55:27;100697.63;;;7.96;72.57